• Join FlightAware (Why Join?)
  • Login
  • US Flag 
07:18AM EDT


 

Airport Tracker/Info


-or-


 

Live Flight TrackerFlight Track Log ✈ AWE1454 ✈ 24-Apr-2013 ✈ KATL - KPHL

Flight Track Log - Related Links

Times and Time Zones

All times are in EDT time to prevent confusion due to time zone crossing. See the AWE1454 flight status page for this flight to view local times or setup timezone preferences in your user account.

Time Position Orientation Groundspeed Altitude Reporting Facility
EDT Latitude Longitude Course Direction KTS MPH feet Rate Location/Type
01:18PM 33.6306 -84.4806 58° Northeast 433 498 2,600  Level Atlanta Center
01:19PM 33.6167 -84.5000 229° Southwest 193 222 3,000 1,740 Climbing Atlanta TRACON
01:20PM 33.8646 -84.1326 54° Northeast  Level Estimated
01:20PM 33.5833 -84.5667 239° Southwest 254 292 5,200  Level Atlanta TRACON
01:21PM 33.8655 -83.9982 89° East  Level FlightAware Approximate
01:21PM 33.5167 -84.5833 192° South 274 315 7,900  Level Atlanta TRACON
01:22PM 33.8663 -83.8637 90° East  Level FlightAware Approximate
01:22PM 33.4553 -84.4744 124° Southeast 307 353 10,800  Level Atlanta Center
01:23PM 33.9432 -83.7662 53° Northeast  Level Estimated
01:23PM 33.4558 -84.3475 90° East 338 389 12,300  Level Atlanta Center
01:24PM 34.0022 -83.6519 58° Northeast  Level FlightAware Approximate
01:24PM 33.5103 -84.2456 57° Northeast 369 425 14,100  Level Atlanta Center
01:25PM 33.6064 -84.1786 30° Northeast 379 436 15,800 1,620 Climbing Atlanta Center
01:26PM 33.6858 -84.0789 46° Northeast 398 458 17,400 1,500 Climbing Atlanta Center
01:27PM 33.7586 -83.9714 51° Northeast 413 475 18,800 1,380 Climbing Atlanta Center
01:28PM 33.8358 -83.8564 51° Northeast 433 498 20,200 1,440 Climbing Atlanta Center
01:29PM 33.9192 -83.7308 51° Northeast 438 504 21,700 1,380 Climbing Atlanta Center
01:30PM 33.9981 -83.6128 51° Northeast 444 511 23,000 1,260 Climbing Atlanta Center
01:31PM 34.0747 -83.4894 53° Northeast 449 517 24,300 1,200 Climbing Atlanta Center
01:32PM 34.1514 -83.3661 53° Northeast 456 525 25,500 1,080 Climbing Atlanta Center
01:33PM 34.2278 -83.2422 53° Northeast 456 525 26,500 900 Climbing Atlanta Center
01:34PM 34.3083 -83.1133 53° Northeast 473 544 27,300 900 Climbing Atlanta Center
01:35PM 34.3867 -82.9867 53° Northeast 473 544 28,400 960 Climbing Atlanta Center
01:36PM 34.4647 -82.8597 53° Northeast 473 544 29,300 900 Climbing Atlanta Center
01:37PM 34.5408 -82.7300 55° Northeast 473 544 30,300 1,080 Climbing Atlanta Center
01:38PM 34.6228 -82.6000 53° Northeast 478 550 31,500 1,440 Climbing Atlanta Center
01:39PM 34.6983 -82.4775 53° Northeast 473 544 33,200 1,260 Climbing Atlanta Center
01:40PM 34.7761 -82.3519 53° Northeast 467 537 34,100 780 Climbing Atlanta Center
01:41PM 34.8536 -82.2239 54° Northeast 462 532 34,800 660 Climbing Atlanta Center
01:42PM 34.9350 -82.0981 52° Northeast 462 532 35,500 660 Climbing Atlanta Center
01:43PM 35.0103 -81.9694 54° Northeast 469 540 36,200 540 Climbing Atlanta Center
01:44PM 35.0850 -81.8331 56° Northeast 479 551 36,600 300 Climbing Atlanta Center
01:45PM 35.1575 -81.6964 57° Northeast 479 551 36,900 180 Climbing Atlanta Center
01:46PM 35.2319 -81.5519 58° Northeast 493 567 37,000  Climbing Atlanta Center
01:47PM 35.2983 -81.4253 57° Northeast 493 567 37,000  Level Atlanta Center
01:48PM 35.3722 -81.2803 58° Northeast 493 567 37,000  Level Atlanta Center
01:49PM 35.4561 -81.1194 57° Northeast 493 567 37,000  Level Atlanta Center
01:50PM 35.5297 -80.9764 58° Northeast 499 574 37,000  Level Atlanta Center
01:51PM 35.6033 -80.8358 57° Northeast 499 574 37,000  Level Atlanta Center
01:52PM 35.6711 -80.7106 56° Northeast 493 567 37,000  Level Atlanta Center
01:53PM 35.7500 -80.5536 58° Northeast 488 562 37,000  Level Atlanta Center
01:54PM 35.8172 -80.4228 58° Northeast 493 567 37,000  Level Atlanta Center
01:55PM 35.8958 -80.2631 59° Northeast 488 562 37,000  Level Atlanta Center
01:58PM 36.0708 -79.9375 56° Northeast 473 544 37,000  Level Washington Center
01:59PM 36.1556 -79.7878 55° Northeast 483 556 37,000  Level Washington Center
02:00PM 36.2244 -79.6628 56° Northeast 483 556 37,000 -840 Level Washington Center
02:01PM 36.3067 -79.5150 55° Northeast 478 550 35,400 -1,500 Descending Washington Center
02:02PM 36.3864 -79.3719 55° Northeast 478 550 34,000 -720 Descending Washington Center
02:03PM 36.4617 -79.2361 55° Northeast 478 550 34,000  Level Washington Center
02:04PM 36.5428 -79.0975 54° Northeast 478 550 34,000  Level Washington Center
02:05PM 36.6200 -78.9589 55° Northeast 478 550 34,000  Level Washington Center
02:06PM 36.6881 -78.8297 57° Northeast 483 556 34,000  Level Washington Center
02:07PM 36.7736 -78.6775 55° Northeast 493 567 34,000  Level Washington Center
02:08PM 36.8481 -78.5378 56° Northeast 488 562 34,000  Level Washington Center
02:09PM 36.9200 -78.4081 55° Northeast 475 547 34,000 -120 Level Washington Center
02:10PM 36.9853 -78.2856 56° Northeast 468 539 33,800 -660 Descending Washington Center
02:11PM 37.0753 -78.1769 44° Northeast 461 531 32,700 -900 Descending Washington Center
02:12PM 37.1919 -78.0869 32° Northeast 437 503 32,000 -480 Descending Washington Center
02:13PM 37.3097 -78.0439 16° North 432 497 31,800 -540 Descending Washington Center
02:14PM 37.4294 -78.0006 16° North 432 497 31,000 -420 Descending Washington Center
02:15PM 37.5356 -77.9094 34° Northeast 447 514 31,000  Level Washington Center
02:16PM 37.6356 -77.8103 38° Northeast 447 514 31,000  Level Washington Center
02:17PM 37.7353 -77.7083 39° Northeast 452 520 31,000  Level Washington Center
02:18PM 37.8372 -77.6111 37° Northeast 457 526 31,000  Level Washington Center
02:19PM 37.9347 -77.5164 37° Northeast 452 520 31,000 -600 Level Washington Center
02:20PM 38.0300 -77.4214 38° Northeast 447 514 29,900 -1,500 Descending Washington Center
02:21PM 38.1106 -77.3414 38° Northeast 425 489 28,000 -1,860 Descending Washington Center
02:22PM 38.2014 -77.2511 38° Northeast 420 483 26,200 -1,860 Descending Washington Center
02:23PM 38.2986 -77.1528 38° Northeast 407 468 24,300 -1,140 Descending Washington Center
02:24PM 38.3725 -77.0828 37° Northeast 393 452 24,000 -180 Descending Washington Center
02:25PM 38.4547 -76.9969 39° Northeast 381 438 24,000  Level Washington Center
02:26PM 38.5392 -76.9136 38° Northeast 381 438 24,000  Level Washington Center
02:27PM 38.6236 -76.8272 39° Northeast 376 433 24,000  Level Washington Center
02:28PM 38.7014 -76.7381 42° Northeast 376 433 24,000 -660 Level Washington Center
02:29PM 38.7361 -76.6031 72° East 368 423 22,700 -1,560 Descending Washington Center
02:30PM 38.7622 -76.4703 76° East 368 423 20,900 -1,800 Descending Washington Center
02:31PM 38.7839 -76.3533 77° East 376 433 19,200 -1,740 Descending Washington Center
02:32PM 38.8136 -76.2178 74° East 371 427 17,500 -1,800 Descending Washington Center
02:33PM 38.8436 -76.0928 73° East 365 420 15,600 -1,320 Descending Washington Center
02:34PM 38.8689 -75.9728 75° East 355 409 14,900 -360 Descending Washington Center
02:35PM 38.8964 -75.8503 74° East 355 409 14,900  Level Washington Center
02:36PM 38.9675 -75.7678 42° Northeast 335 386 14,900 -420 Level Washington Center
02:37PM 39.0467 -75.6958 35° Northeast 330 380 14,100 -1,320 Descending Washington Center
02:38PM 39.1378 -75.6692 13° North 315 362 12,400 -1,680 Descending FAA TRACON SMA TRACON (SMA)
02:38PM 39.1644 -75.6661 North 313 360 12,000 -1,440 Descending FAA TRACON SMA TRACON (SMA)
02:38PM 39.1908 -75.6631 North 311 358 11,500 -1,620 Descending FAA TRACON SMA TRACON (SMA)
02:39PM 39.2236 -75.6597 North 308 354 10,900 -1,680 Descending FAA TRACON SMA TRACON (SMA)
02:39PM 39.2497 -75.6569 North 306 352 10,400 -1,380 Descending FAA TRACON SMA TRACON (SMA)
02:39PM 39.2758 -75.6533 North 306 352 10,000 -600 Descending FAA TRACON SMA TRACON (SMA)
02:40PM 39.3047 -75.6358 25° Northeast 292 336 10,000  Level FAA TRACON SMA TRACON (SMA)
02:40PM 39.3242 -75.6169 37° Northeast 287 330 10,000  Level FAA TRACON SMA TRACON (SMA)
02:40PM 39.3456 -75.5997 32° Northeast 275 316 10,000  Level FAA TRACON SMA TRACON (SMA)
02:41PM 39.3686 -75.5800 33° Northeast 273 314 10,000  Level FAA TRACON SMA TRACON (SMA)
02:41PM 39.3867 -75.5622 37° Northeast 273 314 10,000  Level FAA TRACON SMA TRACON (SMA)
02:41PM 39.4131 -75.5475 23° Northeast 266 306 10,000  Level FAA TRACON SMA TRACON (SMA)
02:42PM 39.4339 -75.5556 343° North 249 287 10,000  Level FAA TRACON SMA TRACON (SMA)
02:42PM 39.4456 -75.5739 309° West 231 266 10,000  Level FAA TRACON SMA TRACON (SMA)
02:42PM 39.4478 -75.5961 277° West 209 241 10,000  Level FAA TRACON SMA TRACON (SMA)
02:43PM 39.4375 -75.6233 244° Southwest 224 258 10,000  Level FAA TRACON SMA TRACON (SMA)
02:43PM 39.4228 -75.6372 216° Southwest 216 249 10,000  Level FAA TRACON SMA TRACON (SMA)
02:43PM 39.4086 -75.6500 215° Southwest 214 246 10,000  Level FAA TRACON SMA TRACON (SMA)
02:44PM 39.3900 -75.6694 219° Southwest 215 247 10,000  Level FAA TRACON SMA TRACON (SMA)
02:44PM 39.3753 -75.6839 217° Southwest 215 247 10,000  Level FAA TRACON SMA TRACON (SMA)
02:44PM 39.3575 -75.6919 199° South 223 257 10,000  Level FAA TRACON SMA TRACON (SMA)
02:45PM 39.3231 -75.6542 140° Southeast 272 313 10,000 -420 Level FAA TRACON SMA TRACON (SMA)
02:45PM 39.3278 -75.6253 78° East 270 311 9,600 -1,260 Descending FAA TRACON SMA TRACON (SMA)
02:46PM 39.3492 -75.6003 42° Northeast 276 318 9,200 -1,440 Descending FAA TRACON SMA TRACON (SMA)
02:46PM 39.3625 -75.5758 55° Northeast 262 302 8,700 -1,320 Descending FAA TRACON SMA TRACON (SMA)
02:46PM 39.3708 -75.5478 69° East 276 318 8,400 -1,260 Descending FAA TRACON SMA TRACON (SMA)
02:47PM 39.3831 -75.5144 65° Northeast 270 311 7,900 -1,320 Descending FAA TRACON SMA TRACON (SMA)
02:47PM 39.3958 -75.4886 57° Northeast 264 304 7,500 -1,200 Descending FAA TRACON SMA TRACON (SMA)
02:47PM 39.4097 -75.4639 54° Northeast 274 315 7,100 -780 Descending FAA TRACON SMA TRACON (SMA)
02:48PM 39.4239 -75.4400 52° Northeast 273 314 7,000 -480 Descending FAA TRACON SMA TRACON (SMA)
02:48PM 39.4411 -75.4089 54° Northeast 274 315 6,800 -780 Descending FAA TRACON SMA TRACON (SMA)
02:48PM 39.4556 -75.3864 50° Northeast 279 321 6,500 -900 Descending FAA TRACON SMA TRACON (SMA)
02:49PM 39.4744 -75.3564 51° Northeast 272 313 6,200 -900 Descending FAA TRACON SMA TRACON (SMA)
02:49PM 39.4889 -75.3333 51° Northeast 271 312 5,900 -780 Descending FAA TRACON SMA TRACON (SMA)
02:49PM 39.5031 -75.3111 50° Northeast 265 305 5,700 -900 Descending FAA TRACON SMA TRACON (SMA)
02:50PM 39.5206 -75.2839 50° Northeast 257 296 5,300 -1,080 Descending FAA TRACON SMA TRACON (SMA)
02:50PM 39.5333 -75.2642 50° Northeast 255 293 5,000 -1,080 Descending FAA TRACON SMA TRACON (SMA)
02:50PM 39.5481 -75.2406 51° Northeast 256 295 4,600 -1,440 Descending FAA TRACON SMA TRACON (SMA)
02:51PM 39.5650 -75.2133 51° Northeast 253 291 4,100 -900 Descending FAA TRACON SMA TRACON (SMA)
02:51PM 39.5781 -75.1911 53° Northeast 254 292 4,000 -180 Descending FAA TRACON SMA TRACON (SMA)
02:51PM 39.5917 -75.1711 49° Northeast 243 280 4,000  Level FAA TRACON SMA TRACON (SMA)
02:52PM 39.6103 -75.1506 40° Northeast 222 255 4,000  Level FAA TRACON SMA TRACON (SMA)
02:52PM 39.6253 -75.1314 45° Northeast 242 278 4,000  Level FAA TRACON SMA TRACON (SMA)
02:52PM 39.6397 -75.1139 43° Northeast 234 269 4,000  Level FAA TRACON SMA TRACON (SMA)
02:53PM 39.6578 -75.0919 43° Northeast 233 268 4,000  Level FAA TRACON SMA TRACON (SMA)
02:53PM 39.6722 -75.0744 43° Northeast 232 267 4,000  Level FAA TRACON SMA TRACON (SMA)
02:53PM 39.6897 -75.0533 43° Northeast 233 268 4,000  Level FAA TRACON SMA TRACON (SMA)
02:54PM 39.7053 -75.0350 42° Northeast 230 265 4,000  Level FAA TRACON SMA TRACON (SMA)
02:54PM 39.7217 -75.0236 28° Northeast 219 252 4,000  Level FAA TRACON SMA TRACON (SMA)
02:54PM 39.7378 -75.0114 30° Northeast 215 247 4,000 -300 Level FAA TRACON SMA TRACON (SMA)
02:55PM 39.7575 -74.9967 30° Northeast 216 249 3,800 -900 Descending FAA TRACON SMA TRACON (SMA)
02:55PM 39.7728 -74.9869 26° Northeast 212 244 3,400 -1,200 Descending FAA TRACON SMA TRACON (SMA)
02:55PM 39.7942 -74.9844 North 192 221 3,000 -600 Descending FAA TRACON SMA TRACON (SMA)
02:56PM 39.8050 -74.9978 317° Northwest 190 219 3,000 -600 Level FAA TRACON SMA TRACON (SMA)
02:56PM 39.8161 -75.0147 310° West 177 204 2,600 -1,320 Descending FAA TRACON SMA TRACON (SMA)
02:56PM 39.8289 -75.0336 311° West 193 222 2,100 -900 Descending FAA TRACON SMA TRACON (SMA)
02:57PM 39.8397 -75.0503 310° West 187 215 2,000 -180 Descending FAA TRACON SMA TRACON (SMA)
02:57PM 39.8503 -75.0661 311° West 187 215 2,000  Level FAA TRACON SMA TRACON (SMA)
02:57PM 39.8589 -75.0869 298° West 163 188 2,000 -480 Level FAA TRACON SMA TRACON (SMA)
02:58PM 39.8619 -75.1042 283° West 160 184 1,700 -900 Descending FAA TRACON SMA TRACON (SMA)